Time;durP1;ratioP1;P1;durP2;ratioP2;P2;SDS_P1;SDS_P2;PMS_P1;PMS_P2;Temp;Humidity;BMP_temperature;BMP_pressure;BME280_temperature;BME280_humidity;BME280_pressure;Samples;Min_cycle;Max_cycle;Signal;HPM_P1;HPM_P2
2021/05/13 00:02:13;;;;;;;12.63;6.57;;;14.70;87.80;;;;;;3545642;40;20036;-69
2021/05/13 00:04:38;;;;;;;9.18;6.00;;;14.70;87.90;;;;;;3543767;40;20050;-69
2021/05/13 00:07:04;;;;;;;11.60;6.90;;;14.60;88.00;;;;;;3540816;40;20030;-69
2021/05/13 00:09:31;;;;;;;9.35;6.35;;;14.60;88.10;;;;;;3540307;40;20113;-70
2021/05/13 00:11:59;;;;;;;10.95;5.90;;;14.60;88.00;;;;;;3539332;40;20112;-70
2021/05/13 00:14:25;;;;;;;10.18;6.55;;;14.60;87.90;;;;;;3546456;40;20110;-69
2021/05/13 00:16:51;;;;;;;9.25;5.65;;;14.70;87.90;;;;;;3545781;40;20046;-69
2021/05/13 00:19:17;;;;;;;10.35;6.20;;;14.60;87.90;;;;;;3544268;40;20439;-69
2021/05/13 00:21:44;;;;;;;8.85;6.30;;;14.70;87.90;;;;;;3542295;40;20124;-69
2021/05/13 00:24:12;;;;;;;7.25;5.50;;;14.70;87.60;;;;;;3549162;40;20446;-70
2021/05/13 00:26:41;;;;;;;8.98;6.45;;;14.60;87.60;;;;;;3548831;40;20030;-69
2021/05/13 00:29:25;;;;;;;10.82;6.68;;;14.60;87.60;;;;;;3544625;40;20100;-69
2021/05/13 00:31:50;;;;;;;14.77;7.45;;;14.60;87.80;;;;;;3545685;40;20070;-67
2021/05/13 00:34:16;;;;;;;11.88;6.47;;;14.60;87.90;;;;;;3543630;40;20435;-69
2021/05/13 00:36:41;;;;;;;11.18;6.93;;;14.60;87.80;;;;;;3549946;40;20027;-67
2021/05/13 00:39:09;;;;;;;11.48;6.10;;;14.60;87.90;;;;;;3549692;40;20026;-68
2021/05/13 00:41:35;;;;;;;8.93;5.85;;;14.60;88.10;;;;;;3546699;40;20277;-68
2021/05/13 00:44:01;;;;;;;13.73;6.40;;;14.60;87.80;;;;;;3545767;40;20057;-67
2021/05/13 00:46:27;;;;;;;11.57;6.22;;;14.60;87.70;;;;;;3545515;40;20705;-67
2021/05/13 00:49:01;;;;;;;8.15;6.18;;;14.60;87.90;;;;;;3547445;40;20136;-69
2021/05/13 00:51:27;;;;;;;11.23;6.13;;;14.60;87.90;;;;;;3546446;40;20053;-68
2021/05/13 00:53:55;;;;;;;8.90;6.22;;;14.60;88.00;;;;;;3543885;40;20439;-67
2021/05/13 00:56:21;;;;;;;14.85;7.65;;;14.60;87.90;;;;;;3542003;40;20046;-68
2021/05/13 00:58:48;;;;;;;11.93;6.78;;;14.50;88.10;;;;;;3540086;40;20120;-67
2021/05/13 01:01:18;;;;;;;10.93;6.43;;;14.50;88.20;;;;;;3539316;40;20038;-68
2021/05/13 01:03:45;;;;;;;13.07;6.93;;;14.40;88.60;;;;;;3541102;40;20075;-69
2021/05/13 01:06:12;;;;;;;8.85;6.72;;;14.50;88.70;;;;;;3543565;40;20030;-68
2021/05/13 01:08:40;;;;;;;16.30;7.90;;;14.50;88.70;;;;;;3545143;40;20136;-69
2021/05/13 01:11:11;;;;;;;9.75;6.57;;;14.50;88.40;;;;;;3549117;40;20038;-69
2021/05/13 01:14:14;;;;;;;11.77;6.78;;;14.50;88.30;;;;;;3541774;40;20396;-68
2021/05/13 01:16:52;;;;;;;14.35;7.47;;;14.50;88.60;;;;;;3542289;40;20050;-68
2021/05/13 01:19:18;;;;;;;12.23;7.32;;;14.50;88.40;;;;;;3546154;40;20030;-68
2021/05/13 01:21:44;;;;;;;13.27;6.63;;;14.50;88.40;;;;;;3544319;40;20757;-69
2021/05/13 01:24:11;;;;;;;10.50;6.90;;;14.50;88.50;;;;;;3542806;40;20040;-68
2021/05/13 01:26:37;;;;;;;12.00;7.15;;;14.40;88.40;;;;;;3541113;40;20395;-67
2021/05/13 01:29:03;;;;;;;9.23;7.15;;;14.40;88.90;;;;;;3542439;40;20061;-68
2021/05/13 01:31:29;;;;;;;11.32;7.80;;;14.40;88.90;;;;;;3546852;40;20057;-68
2021/05/13 01:33:55;;;;;;;14.73;7.97;;;14.40;89.10;;;;;;3545254;40;20037;-67
2021/05/13 01:36:21;;;;;;;10.90;7.13;;;14.40;89.10;;;;;;3542849;40;20112;-68
2021/05/13 01:38:46;;;;;;;9.43;6.40;;;14.30;89.40;;;;;;3540973;40;20300;-68
2021/05/13 01:41:12;;;;;;;11.73;7.20;;;14.40;89.60;;;;;;3541029;40;20030;-68
2021/05/13 01:43:38;;;;;;;16.17;7.68;;;14.40;89.40;;;;;;3542740;40;20042;-67
2021/05/13 01:46:03;;;;;;;11.10;7.28;;;14.40;89.40;;;;;;3544409;40;20523;-68
2021/05/13 01:48:30;;;;;;;12.05;7.60;;;14.40;89.50;;;;;;3543120;40;20735;-68
2021/05/13 01:50:56;;;;;;;13.57;7.88;;;14.40;88.70;;;;;;3541257;40;20131;-68
2021/05/13 01:53:22;;;;;;;12.32;8.50;;;14.40;88.90;;;;;;3540467;40;20023;-67
2021/05/13 01:55:48;;;;;;;12.30;8.05;;;14.30;89.30;;;;;;3543079;40;20147;-69
2021/05/13 01:58:14;;;;;;;14.63;7.90;;;14.30;89.40;;;;;;3544402;40;20077;-69
2021/05/13 02:00:43;;;;;;;15.68;8.70;;;14.30;89.50;;;;;;3541454;40;20042;-68
2021/05/13 02:03:10;;;;;;;12.95;8.63;;;14.20;89.90;;;;;;3541115;40;20044;-68
2021/05/13 02:05:35;;;;;;;14.45;8.23;;;14.20;90.00;;;;;;3540363;40;20797;-67
2021/05/13 02:08:01;;;;;;;14.82;8.85;;;14.20;90.10;;;;;;3541861;40;20033;-67
2021/05/13 02:10:27;;;;;;;16.40;8.82;;;14.20;90.20;;;;;;3544246;40;20035;-68
2021/05/13 02:12:56;;;;;;;12.20;8.65;;;14.10;90.10;;;;;;3545554;40;20859;-69
2021/05/13 02:15:22;;;;;;;17.35;9.95;;;14.10;90.30;;;;;;3548049;40;20046;-68
2021/05/13 02:17:48;;;;;;;10.38;8.38;;;14.10;90.30;;;;;;3548471;40;20058;-69
2021/05/13 02:20:17;;;;;;;15.23;8.82;;;14.10;90.30;;;;;;3547409;40;20066;-69
2021/05/13 02:22:43;;;;;;;18.48;9.30;;;14.10;90.30;;;;;;3546014;40;20038;-67
2021/05/13 02:25:10;;;;;;;10.77;8.38;;;14.20;90.30;;;;;;3546981;40;20049;-69
2021/05/13 02:27:36;;;;;;;14.02;8.40;;;14.10;90.40;;;;;;3548492;40;20029;-69
2021/05/13 02:30:04;;;;;;;12.90;8.35;;;14.10;90.50;;;;;;3543818;40;20113;-69
2021/05/13 02:32:30;;;;;;;12.80;8.90;;;14.10;90.30;;;;;;3546136;40;20044;-69
2021/05/13 02:34:56;;;;;;;12.05;9.38;;;14.20;90.20;;;;;;3543064;40;20035;-69
2021/05/13 02:37:21;;;;;;;12.18;8.77;;;14.10;90.00;;;;;;3543603;40;20124;-69
2021/05/13 02:39:48;;;;;;;13.13;9.82;;;14.10;90.10;;;;;;3543827;40;20399;-68
2021/05/13 02:42:14;;;;;;;11.60;8.27;;;14.10;90.30;;;;;;3543213;40;20042;-69
2021/05/13 02:44:39;;;;;;;13.80;8.52;;;14.10;90.30;;;;;;3545350;40;20066;-67
2021/05/13 02:47:05;;;;;;;10.27;7.75;;;14.10;90.40;;;;;;3544982;40;20604;-70
2021/05/13 02:49:31;;;;;;;10.93;8.18;;;14.00;90.30;;;;;;3546577;40;20041;-69
2021/05/13 02:51:57;;;;;;;12.35;8.55;;;14.00;90.70;;;;;;3545495;40;20736;-69
2021/05/13 02:54:22;;;;;;;13.70;9.13;;;14.10;90.50;;;;;;3544944;40;20080;-69
2021/05/13 02:56:48;;;;;;;10.13;8.32;;;14.10;90.30;;;;;;3548680;40;20022;-69
2021/05/13 02:59:16;;;;;;;11.55;8.13;;;14.10;90.20;;;;;;3546140;40;20100;-68
2021/05/13 03:01:42;;;;;;;10.90;8.30;;;14.10;90.30;;;;;;3545602;40;20026;-68
2021/05/13 03:04:08;;;;;;;14.55;8.73;;;14.10;90.30;;;;;;3543501;40;20137;-67
2021/05/13 03:06:34;;;;;;;17.85;9.02;;;14.10;90.40;;;;;;3542390;40;20518;-68
2021/05/13 03:09:02;;;;;;;13.23;9.23;;;14.00;90.40;;;;;;3544353;40;20045;-69
2021/05/13 03:11:28;;;;;;;14.00;8.90;;;14.10;90.50;;;;;;3544960;40;20040;-70
2021/05/13 03:13:56;;;;;;;13.48;9.35;;;14.00;90.40;;;;;;3545046;40;20053;-69
2021/05/13 03:16:23;;;;;;;13.10;8.90;;;14.00;90.40;;;;;;3544314;40;20124;-69
2021/05/13 03:18:54;;;;;;;13.23;9.13;;;14.00;90.40;;;;;;3541439;40;20011;-70
2021/05/13 03:24:29;;;;;;;12.15;8.93;;;13.90;90.60;;;;;;3545149;40;20026;-71
2021/05/13 03:29:41;;;;;;;11.40;8.98;;;13.90;90.60;;;;;;3544358;40;20668;-69
2021/05/13 03:32:07;;;;;;;14.43;9.27;;;14.00;90.30;;;;;;3545495;40;20033;-70
2021/05/13 03:34:33;;;;;;;13.90;9.02;;;13.90;90.50;;;;;;3544856;40;20045;-69
2021/05/13 03:36:59;;;;;;;13.55;9.27;;;13.90;90.50;;;;;;3546473;40;20045;-70
2021/05/13 03:39:25;;;;;;;15.20;8.45;;;13.90;90.30;;;;;;3545071;40;20070;-70
2021/05/13 03:41:51;;;;;;;10.38;7.88;;;13.90;90.20;;;;;;3546439;40;20030;-70
2021/05/13 03:44:16;;;;;;;13.57;9.10;;;13.90;90.20;;;;;;3543399;40;20022;-68
2021/05/13 03:46:42;;;;;;;12.77;8.02;;;13.90;90.40;;;;;;3544083;40;20026;-69
2021/05/13 03:49:08;;;;;;;14.15;9.35;;;13.90;90.40;;;;;;3547546;40;20084;-70
2021/05/13 03:51:33;;;;;;;10.75;7.85;;;13.90;90.40;;;;;;3544621;40;20104;-69
2021/05/13 03:53:59;;;;;;;17.02;9.15;;;13.90;90.30;;;;;;3546553;40;20107;-69
2021/05/13 03:56:25;;;;;;;14.02;8.40;;;13.90;90.50;;;;;;3544678;40;20032;-69
2021/05/13 03:58:55;;;;;;;14.82;9.40;;;13.90;90.40;;;;;;3547286;40;20029;-70
2021/05/13 04:04:05;;;;;;;14.75;8.77;;;13.90;90.40;;;;;;3541598;40;20381;-70
2021/05/13 04:06:31;;;;;;;13.23;8.38;;;13.90;90.50;;;;;;3544167;40;20160;-69
2021/05/13 04:08:56;;;;;;;14.38;7.53;;;13.80;90.30;;;;;;3542775;40;20046;-70
2021/05/13 04:11:22;;;;;;;14.32;8.65;;;13.80;90.60;;;;;;3547350;40;20367;-70
2021/05/13 04:13:48;;;;;;;14.68;9.25;;;13.80;90.70;;;;;;3546264;40;20050;-70
2021/05/13 04:16:13;;;;;;;11.88;7.70;;;13.80;90.70;;;;;;3546908;40;20517;-68
2021/05/13 04:18:39;;;;;;;20.73;12.95;;;13.80;90.80;;;;;;3545411;40;20032;-69
2021/05/13 04:21:05;;;;;;;13.05;9.00;;;13.90;90.60;;;;;;3546889;40;20798;-69
2021/05/13 04:23:31;;;;;;;14.43;8.55;;;13.90;90.40;;;;;;3543960;40;20026;-69
2021/05/13 04:25:56;;;;;;;13.73;8.60;;;13.90;90.60;;;;;;3540749;40;20128;-69
2021/05/13 04:28:22;;;;;;;17.55;9.55;;;13.90;90.60;;;;;;3542994;40;20459;-69
2021/05/13 04:30:48;;;;;;;11.27;7.60;;;13.90;90.60;;;;;;3544078;40;20031;-69
2021/05/13 04:33:13;;;;;;;13.20;8.65;;;14.00;90.60;;;;;;3540473;40;20281;-68
2021/05/13 04:35:39;;;;;;;11.15;8.73;;;14.00;90.30;;;;;;3542937;40;20030;-68
2021/05/13 04:38:05;;;;;;;12.82;9.25;;;14.00;90.40;;;;;;3547739;40;20676;-67
2021/05/13 04:40:31;;;;;;;9.95;8.15;;;14.00;90.30;;;;;;3546243;40;20637;-69
2021/05/13 04:42:57;;;;;;;11.23;7.65;;;14.00;90.40;;;;;;3545882;40;20229;-68
2021/05/13 04:45:23;;;;;;;14.13;8.63;;;14.00;90.40;;;;;;3544807;40;20026;-69
2021/05/13 04:50:23;;;;;;;12.02;8.48;;;14.10;90.30;;;;;;3545005;40;20506;-67
2021/05/13 04:52:49;;;;;;;15.60;8.45;;;14.00;90.40;;;;;;3547941;40;20037;-68
2021/05/13 04:55:16;;;;;;;12.73;8.57;;;14.10;90.30;;;;;;3547695;40;20043;-61
2021/05/13 04:57:41;;;;;;;11.30;8.20;;;14.10;90.20;;;;;;3545437;40;20033;-64
2021/05/13 05:00:11;;;;;;;11.25;7.75;;;14.10;90.20;;;;;;3546978;40;20042;-64
2021/05/13 05:02:37;;;;;;;12.27;8.13;;;14.00;90.00;;;;;;3545498;40;20038;-63
2021/05/13 05:05:05;;;;;;;11.07;8.35;;;14.00;90.10;;;;;;3546797;40;20041;-61
2021/05/13 05:07:30;;;;;;;13.35;8.73;;;14.00;90.40;;;;;;3546676;40;20401;-63
2021/05/13 05:09:56;;;;;;;9.77;7.35;;;13.90;90.40;;;;;;3542697;40;20042;-62
2021/05/13 05:12:22;;;;;;;14.07;8.20;;;14.00;90.30;;;;;;3548731;40;20030;-63
2021/05/13 05:14:49;;;;;;;10.25;7.57;;;14.00;90.30;;;;;;3541731;40;20785;-63
2021/05/13 05:17:14;;;;;;;10.90;8.00;;;14.00;90.30;;;;;;3553892;40;20038;-70
2021/05/13 05:19:40;;;;;;;13.52;8.43;;;14.10;90.20;;;;;;3544643;40;20325;-62
2021/05/13 05:22:06;;;;;;;11.50;8.15;;;14.10;90.10;;;;;;3546587;40;20044;-61
2021/05/13 05:24:33;;;;;;;11.32;7.70;;;14.10;89.80;;;;;;3547820;40;20908;-69
2021/05/13 05:26:59;;;;;;;14.25;8.23;;;14.10;90.00;;;;;;3548660;40;20030;-68
2021/05/13 05:29:25;;;;;;;12.13;7.97;;;14.10;90.00;;;;;;3547182;40;20034;-68
2021/05/13 05:31:51;;;;;;;11.02;7.97;;;14.10;90.00;;;;;;3545357;40;20031;-67
2021/05/13 05:34:16;;;;;;;9.98;7.75;;;14.10;90.10;;;;;;3547995;40;20030;-63
2021/05/13 05:36:42;;;;;;;10.40;6.65;;;14.10;90.10;;;;;;3547149;40;20053;-63
2021/05/13 05:39:11;;;;;;;12.77;8.80;;;14.20;90.10;;;;;;3542536;40;20023;-63
2021/05/13 05:41:36;;;;;;;17.00;8.43;;;14.20;90.10;;;;;;3545677;40;20029;-68
2021/05/13 05:44:02;;;;;;;11.65;9.35;;;14.20;90.00;;;;;;3544409;40;20038;-68
2021/05/13 05:46:28;;;;;;;14.70;8.63;;;14.20;90.00;;;;;;3545649;40;20064;-68
2021/05/13 05:48:55;;;;;;;11.35;7.82;;;14.20;90.00;;;;;;3539962;40;20042;-66
2021/05/13 05:51:21;;;;;;;11.35;9.35;;;14.20;90.00;;;;;;3540196;40;20105;-67
2021/05/13 05:53:46;;;;;;;10.48;8.20;;;14.20;89.70;;;;;;3541616;40;20030;-68
2021/05/13 05:56:12;;;;;;;13.68;9.18;;;14.20;89.70;;;;;;3545300;40;20031;-67
2021/05/13 05:58:38;;;;;;;9.38;7.30;;;14.20;89.30;;;;;;3545427;40;20038;-70
2021/05/13 06:01:04;;;;;;;10.95;8.05;;;14.10;89.60;;;;;;3548272;40;20034;-68
2021/05/13 06:03:29;;;;;;;12.20;8.80;;;14.10;90.00;;;;;;3542790;40;20086;-68
2021/05/13 06:05:55;;;;;;;13.65;8.70;;;14.10;89.70;;;;;;3547886;40;20081;-68
2021/05/13 06:08:20;;;;;;;11.68;8.32;;;14.10;89.40;;;;;;3546222;40;20165;-68
2021/05/13 06:10:46;;;;;;;14.63;9.15;;;14.20;89.10;;;;;;3545068;40;20131;-68
2021/05/13 06:13:12;;;;;;;14.18;9.45;;;14.20;89.20;;;;;;3542982;40;20045;-68
2021/05/13 06:15:38;;;;;;;21.15;9.52;;;14.20;88.90;;;;;;3544603;40;20866;-68
2021/05/13 06:18:07;;;;;;;11.43;9.43;;;14.20;89.20;;;;;;3547082;40;20038;-67
2021/05/13 06:20:34;;;;;;;13.55;8.75;;;14.20;89.20;;;;;;3546368;40;20070;-68
2021/05/13 06:23:00;;;;;;;12.95;8.50;;;14.20;89.10;;;;;;3546141;40;20050;-67
2021/05/13 06:25:27;;;;;;;11.95;8.18;;;14.10;89.00;;;;;;3545852;40;20140;-68
2021/05/13 06:27:53;;;;;;;14.55;9.55;;;14.10;89.30;;;;;;3547452;40;20132;-68
2021/05/13 06:30:20;;;;;;;13.02;9.25;;;14.20;89.20;;;;;;3547879;40;20029;-68
2021/05/13 06:32:46;;;;;;;14.35;9.82;;;14.10;89.10;;;;;;3545230;40;20755;-68
2021/05/13 06:35:14;;;;;;;14.40;9.25;;;14.10;88.80;;;;;;3543887;40;20022;-68
2021/05/13 06:37:40;;;;;;;12.68;9.00;;;13.90;88.70;;;;;;3543606;40;20033;-67
2021/05/13 06:40:07;;;;;;;12.30;9.13;;;13.90;89.60;;;;;;3544992;40;20427;-67
2021/05/13 06:42:33;;;;;;;16.15;9.23;;;14.00;89.60;;;;;;3546789;40;20036;-68
2021/05/13 06:44:59;;;;;;;14.52;9.32;;;14.00;89.40;;;;;;3547712;40;20053;-68
2021/05/13 06:47:25;;;;;;;14.68;8.77;;;14.00;89.60;;;;;;3546146;40;20034;-68
2021/05/13 06:49:50;;;;;;;12.45;8.55;;;14.00;89.30;;;;;;3546839;40;20116;-67
2021/05/13 06:52:17;;;;;;;12.13;8.38;;;14.00;89.20;;;;;;3546631;40;20043;-68
2021/05/13 06:54:43;;;;;;;10.38;8.02;;;14.10;89.50;;;;;;3543103;40;20046;-68
2021/05/13 06:57:09;;;;;;;12.57;8.05;;;14.20;89.10;;;;;;3546861;40;20034;-67
2021/05/13 06:59:37;;;;;;;13.57;8.43;;;14.20;89.00;;;;;;3544752;40;20776;-66
2021/05/13 07:02:03;;;;;;;11.13;7.45;;;14.30;88.60;;;;;;3545108;40;20412;-68
2021/05/13 07:04:31;;;;;;;10.18;7.82;;;14.30;88.50;;;;;;3548121;40;20070;-68
2021/05/13 07:06:57;;;;;;;11.00;7.38;;;14.30;88.40;;;;;;3547800;40;20030;-67
2021/05/13 07:09:22;;;;;;;11.02;8.00;;;14.30;88.00;;;;;;3547241;40;20238;-68
2021/05/13 07:11:48;;;;;;;12.60;7.38;;;14.30;87.70;;;;;;3544393;40;20037;-68
2021/05/13 07:14:14;;;;;;;9.20;6.18;;;14.30;87.80;;;;;;3547242;40;20058;-66
2021/05/13 07:16:40;;;;;;;11.13;7.35;;;14.20;88.20;;;;;;3547623;40;20045;-67
2021/05/13 07:19:05;;;;;;;12.75;6.88;;;14.30;87.80;;;;;;3545082;40;20049;-68
2021/05/13 07:21:32;;;;;;;10.23;7.13;;;14.30;87.70;;;;;;3545369;40;20097;-66
2021/05/13 07:23:58;;;;;;;11.27;7.72;;;14.30;87.10;;;;;;3544834;40;20040;-68
2021/05/13 07:26:24;;;;;;;9.82;7.32;;;14.20;87.40;;;;;;3545653;40;20038;-68
2021/05/13 07:28:51;;;;;;;13.27;7.68;;;14.20;88.30;;;;;;3545538;40;20030;-67
2021/05/13 07:31:17;;;;;;;13.68;7.47;;;14.20;87.80;;;;;;3541958;40;20058;-67
2021/05/13 07:33:42;;;;;;;11.20;6.82;;;14.20;87.80;;;;;;3542906;40;20038;-67
2021/05/13 07:36:08;;;;;;;9.80;7.13;;;14.20;88.20;;;;;;3543632;40;20597;-69
2021/05/13 07:38:34;;;;;;;10.30;7.25;;;14.20;88.40;;;;;;3544253;40;20061;-68
2021/05/13 07:41:03;;;;;;;11.65;7.45;;;14.20;88.50;;;;;;3540024;40;20162;-67
2021/05/13 07:43:29;;;;;;;11.32;6.85;;;14.20;87.40;;;;;;3542863;40;20030;-68
2021/05/13 07:45:55;;;;;;;10.07;7.15;;;14.20;88.00;;;;;;3545355;40;20103;-68
2021/05/13 07:48:21;;;;;;;8.27;6.53;;;14.20;87.90;;;;;;3541771;40;20022;-68
2021/05/13 07:50:47;;;;;;;9.48;6.68;;;14.10;87.00;;;;;;3544307;40;20042;-67
2021/05/13 07:53:13;;;;;;;10.23;7.22;;;14.10;88.20;;;;;;3545013;40;20044;-68
2021/05/13 07:55:39;;;;;;;8.82;6.63;;;14.20;88.70;;;;;;3540281;40;20076;-68
2021/05/13 07:58:05;;;;;;;10.48;8.15;;;14.20;89.10;;;;;;3542090;40;20129;-68
2021/05/13 08:00:31;;;;;;;12.32;7.30;;;14.20;88.70;;;;;;3546255;40;20038;-69
2021/05/13 08:02:57;;;;;;;10.07;6.45;;;14.20;88.40;;;;;;3545292;40;20108;-68
2021/05/13 08:05:23;;;;;;;8.18;6.07;;;14.20;88.40;;;;;;3546574;40;20768;-67
2021/05/13 08:07:48;;;;;;;9.57;6.95;;;14.30;88.60;;;;;;3546145;40;20019;-63
2021/05/13 08:10:15;;;;;;;8.15;5.93;;;14.30;88.30;;;;;;3543153;40;20038;-63
2021/05/13 08:12:41;;;;;;;13.02;7.53;;;14.30;88.20;;;;;;3544732;40;20018;-63
2021/05/13 08:15:10;;;;;;;10.95;7.57;;;14.40;87.50;;;;;;3546241;40;20136;-64
2021/05/13 08:17:37;;;;;;;11.27;7.40;;;14.40;87.00;;;;;;3545452;40;20042;-64
2021/05/13 08:20:04;;;;;;;7.30;5.95;;;14.30;87.00;;;;;;3540741;40;20050;-63
2021/05/13 08:22:30;;;;;;;9.98;6.38;;;14.30;86.60;;;;;;3542419;40;20022;-63
2021/05/13 08:24:56;;;;;;;8.43;6.20;;;14.30;86.90;;;;;;3546385;40;20034;-62
2021/05/13 08:27:22;;;;;;;8.32;6.20;;;14.30;87.20;;;;;;3543849;40;20030;-63
2021/05/13 08:29:47;;;;;;;9.65;5.53;;;14.30;87.30;;;;;;3546473;40;20026;-63
2021/05/13 08:32:13;;;;;;;7.15;5.50;;;14.30;87.60;;;;;;3546431;40;20115;-63
2021/05/13 08:34:39;;;;;;;7.43;5.55;;;14.40;87.00;;;;;;3541841;40;20045;-63
2021/05/13 08:37:04;;;;;;;7.40;5.47;;;14.30;86.10;;;;;;3544573;40;20881;-63
2021/05/13 08:39:30;;;;;;;6.95;5.10;;;14.20;86.80;;;;;;3545772;40;20111;-63
2021/05/13 08:41:55;;;;;;;6.95;5.65;;;14.20;87.50;;;;;;3546665;40;20018;-63
2021/05/13 08:44:22;;;;;;;9.75;4.85;;;14.20;87.90;;;;;;3544309;40;20065;-63
2021/05/13 08:46:47;;;;;;;7.03;5.18;;;14.20;87.40;;;;;;3544020;40;20042;-63
2021/05/13 08:49:13;;;;;;;7.25;5.10;;;14.20;87.50;;;;;;3544714;40;20065;-63
2021/05/13 08:51:40;;;;;;;7.00;4.93;;;14.20;87.60;;;;;;3545925;40;20059;-63
2021/05/13 08:54:06;;;;;;;8.82;5.43;;;14.30;87.60;;;;;;3543657;40;20031;-62
2021/05/13 08:56:32;;;;;;;9.25;5.03;;;14.30;86.80;;;;;;3546972;40;20081;-66
2021/05/13 08:59:05;;;;;;;9.73;4.40;;;14.30;87.10;;;;;;3539537;40;20203;-66
2021/05/13 09:01:33;;;;;;;5.35;4.65;;;14.30;87.60;;;;;;3545235;40;20030;-68
2021/05/13 09:04:01;;;;;;;5.63;4.70;;;14.40;88.00;;;;;;3545013;40;20067;-68
2021/05/13 09:06:32;;;;;;;4.82;4.20;;;14.40;87.40;;;;;;3546850;40;20033;-68
2021/05/13 09:09:16;;;;;;;5.85;4.22;;;14.40;87.30;;;;;;3544771;40;20030;-68
2021/05/13 09:11:49;;;;;;;6.93;5.20;;;14.50;87.20;;;;;;3542716;40;20103;-69
2021/05/13 09:14:27;;;;;;;4.93;4.00;;;14.50;86.60;;;;;;3543501;40;20328;-65
2021/05/13 09:16:54;;;;;;;6.22;3.60;;;14.50;86.00;;;;;;3546219;40;20046;-67
2021/05/13 09:19:27;;;;;;;5.38;3.53;;;14.50;89.10;;;;;;3548854;40;20143;-67
2021/05/13 09:22:02;;;;;;;5.75;3.63;;;14.60;86.70;;;;;;3549153;40;20042;-67
2021/05/13 09:25:00;;;;;;;6.82;4.45;;;14.90;86.80;;;;;;3549593;40;20038;-67
2021/05/13 09:27:27;;;;;;;5.15;3.90;;;15.10;85.20;;;;;;3543069;40;20082;-67
2021/05/13 09:30:24;;;;;;;5.75;4.25;;;15.30;83.50;;;;;;3547247;40;20026;-68
2021/05/13 09:32:55;;;;;;;7.05;4.43;;;15.50;82.20;;;;;;3545043;40;20148;-68
2021/05/13 09:35:23;;;;;;;5.68;4.15;;;15.60;81.10;;;;;;3548125;40;20062;-68
2021/05/13 09:37:55;;;;;;;4.70;3.33;;;15.70;80.80;;;;;;3547600;40;20030;-68
2021/05/13 09:40:34;;;;;;;3.88;2.75;;;15.80;79.50;;;;;;3544309;40;20042;-66
2021/05/13 09:43:16;;;;;;;3.70;2.83;;;15.90;78.90;;;;;;3544131;40;20490;-68
2021/05/13 09:45:52;;;;;;;3.78;3.20;;;15.90;78.90;;;;;;3545969;40;20439;-69
2021/05/13 09:48:41;;;;;;;3.35;2.80;;;15.80;79.20;;;;;;3549378;40;20053;-67
2021/05/13 09:51:28;;;;;;;6.13;3.35;;;15.70;79.30;;;;;;3538753;40;20029;-68
2021/05/13 09:54:15;;;;;;;11.15;7.47;;;15.70;79.50;;;;;;3546289;40;20030;-68
2021/05/13 09:56:49;;;;;;;5.28;3.83;;;15.50;80.70;;;;;;3547867;40;20048;-63
2021/05/13 09:59:31;;;;;;;5.55;3.75;;;15.30;81.80;;;;;;3547836;40;20036;-63
2021/05/13 10:02:08;;;;;;;4.32;3.92;;;15.20;81.70;;;;;;3546202;40;20124;-63
2021/05/13 10:04:34;;;;;;;5.75;4.07;;;15.10;82.10;;;;;;3547234;40;20115;-63
2021/05/13 10:07:00;;;;;;;5.50;4.65;;;15.00;83.00;;;;;;3548069;40;20030;-63
2021/05/13 10:09:26;;;;;;;5.63;5.10;;;14.90;83.70;;;;;;3546225;40;20022;-63
2021/05/13 10:11:57;;;;;;;5.43;4.93;;;14.90;84.40;;;;;;3545245;40;20032;-63
2021/05/13 10:14:28;;;;;;;6.32;5.40;;;14.90;84.10;;;;;;3546399;40;20046;-64
2021/05/13 10:17:05;;;;;;;5.70;4.85;;;14.80;84.40;;;;;;3547152;40;20042;-63
2021/05/13 10:19:55;;;;;;;6.47;4.35;;;14.90;83.90;;;;;;3548436;40;20469;-64
2021/05/13 10:22:21;;;;;;;5.90;4.85;;;14.70;84.20;;;;;;3547974;40;20076;-63
2021/05/13 10:24:47;;;;;;;10.73;8.02;;;14.70;84.80;;;;;;3548586;40;20041;-64
2021/05/13 10:27:18;;;;;;;13.00;8.60;;;14.60;84.70;;;;;;3549013;40;20065;-62
2021/05/13 10:29:45;;;;;;;6.18;4.70;;;14.60;85.40;;;;;;3544145;40;20041;-63
2021/05/13 10:32:18;;;;;;;13.65;8.23;;;14.60;85.30;;;;;;3544941;40;20049;-64
2021/05/13 10:34:57;;;;;;;12.27;9.23;;;14.60;85.80;;;;;;3542363;40;20427;-64
2021/05/13 10:37:34;;;;;;;8.90;5.95;;;14.50;86.20;;;;;;3548285;40;20644;-63
2021/05/13 10:43:03;;;;;;;7.15;4.78;;;14.60;86.10;;;;;;3542886;40;20128;-64
2021/05/13 10:45:39;;;;;;;5.78;4.20;;;14.60;86.00;;;;;;3544895;40;20062;-64
2021/05/13 10:48:27;;;;;;;6.03;3.90;;;14.60;85.10;;;;;;3545717;40;20677;-63
2021/05/13 10:50:56;;;;;;;6.97;5.07;;;14.50;85.50;;;;;;3539931;40;20042;-63
2021/05/13 10:53:39;;;;;;;5.70;4.45;;;14.50;86.00;;;;;;3541014;40;20045;-64
2021/05/13 10:56:32;;;;;;;3.85;3.45;;;14.50;86.40;;;;;;3545135;40;20037;-63
2021/05/13 10:59:07;;;;;;;8.02;4.72;;;14.50;86.30;;;;;;3545223;40;20788;-63
2021/05/13 11:01:44;;;;;;;5.50;3.60;;;14.50;86.70;;;;;;3546173;40;20778;-64
2021/05/13 11:04:25;;;;;;;3.97;3.03;;;14.50;87.00;;;;;;3539944;40;20030;-63
2021/05/13 11:06:55;;;;;;;4.63;3.47;;;14.40;87.00;;;;;;3547238;40;20045;-64
2021/05/13 11:09:39;;;;;;;4.40;2.95;;;14.40;87.00;;;;;;3543109;40;20037;-64
2021/05/13 11:12:20;;;;;;;3.90;3.10;;;14.40;86.90;;;;;;3542966;40;20037;-64
2021/05/13 11:17:44;;;;;;;2.58;2.25;;;14.30;88.10;;;;;;3540646;40;20041;-63
2021/05/13 11:20:37;;;;;;;4.35;2.05;;;14.40;87.50;;;;;;3546344;40;20069;-63
2021/05/13 11:23:11;;;;;;;2.75;2.45;;;14.40;87.80;;;;;;3544537;40;20088;-64
2021/05/13 11:25:56;;;;;;;3.70;2.80;;;14.40;87.30;;;;;;3546017;40;20038;-63
2021/05/13 11:28:33;;;;;;;2.50;2.20;;;14.40;87.90;;;;;;3548426;40;20038;-64
2021/05/13 11:31:05;;;;;;;3.42;2.35;;;14.40;87.70;;;;;;3543897;40;20052;-64
2021/05/13 11:33:41;;;;;;;2.75;2.20;;;14.30;87.60;;;;;;3545270;40;20037;-64
2021/05/13 11:36:08;;;;;;;3.78;2.17;;;14.40;87.80;;;;;;3544625;40;20041;-62
2021/05/13 11:38:34;;;;;;;2.60;2.35;;;14.40;87.50;;;;;;3546485;40;20061;-63
2021/05/13 11:41:00;;;;;;;3.33;1.88;;;14.40;87.60;;;;;;3548055;40;20494;-63
2021/05/13 11:43:31;;;;;;;2.88;2.50;;;14.40;87.50;;;;;;3547736;40;20022;-63
2021/05/13 11:45:59;;;;;;;2.90;2.70;;;14.40;87.60;;;;;;3542060;40;20045;-63
2021/05/13 11:48:27;;;;;;;4.75;3.72;;;14.40;87.60;;;;;;3544078;40;20070;-63
2021/05/13 11:50:55;;;;;;;2.58;2.38;;;14.40;87.60;;;;;;3540356;40;20053;-63
2021/05/13 11:53:22;;;;;;;1.98;1.88;;;14.40;87.60;;;;;;3538029;40;20038;-63
2021/05/13 11:55:48;;;;;;;2.35;1.80;;;14.40;87.60;;;;;;3539185;40;20030;-63
2021/05/13 11:58:33;;;;;;;2.47;2.28;;;14.40;87.90;;;;;;3542022;40;20100;-64
2021/05/13 12:01:26;;;;;;;3.17;2.08;;;14.40;88.00;;;;;;3544001;40;20045;-63
2021/05/13 12:04:03;;;;;;;2.65;2.45;;;14.40;87.90;;;;;;3540835;40;20042;-63
2021/05/13 12:06:46;;;;;;;4.03;2.53;;;14.40;88.10;;;;;;3546776;40;20465;-63
2021/05/13 12:09:14;;;;;;;3.40;2.90;;;14.40;88.20;;;;;;3545659;40;20060;-63
2021/05/13 12:11:41;;;;;;;5.13;3.28;;;14.40;88.20;;;;;;3542251;40;20025;-63
2021/05/13 12:14:11;;;;;;;5.63;2.83;;;14.30;88.40;;;;;;3543949;40;20136;-64
2021/05/13 12:16:37;;;;;;;3.72;3.30;;;14.40;88.40;;;;;;3539942;40;20775;-63
2021/05/13 12:19:09;;;;;;;2.95;2.65;;;14.40;88.60;;;;;;3539047;40;20042;-68
2021/05/13 12:21:37;;;;;;;4.68;3.75;;;14.40;88.50;;;;;;3540231;40;20041;-67
2021/05/13 12:24:05;;;;;;;4.30;2.88;;;14.40;87.60;;;;;;3540439;40;20042;-69
2021/05/13 12:26:33;;;;;;;2.83;2.63;;;14.40;87.80;;;;;;3543307;40;20042;-69
2021/05/13 12:29:00;;;;;;;3.65;2.60;;;14.30;87.80;;;;;;3540113;40;20629;-68
2021/05/13 12:31:32;;;;;;;3.13;2.83;;;14.30;87.70;;;;;;3538051;40;20039;-70
2021/05/13 12:34:03;;;;;;;2.47;2.28;;;14.30;88.40;;;;;;3540414;40;20027;-68
2021/05/13 12:36:28;;;;;;;3.08;2.10;;;14.30;88.70;;;;;;3541956;40;20031;-67
2021/05/13 12:38:55;;;;;;;2.88;2.42;;;14.30;88.60;;;;;;3543355;40;20064;-68
2021/05/13 12:41:27;;;;;;;3.15;2.63;;;14.30;88.60;;;;;;3545599;40;20788;-68
2021/05/13 12:44:07;;;;;;;3.60;2.42;;;14.40;88.60;;;;;;3539187;40;20042;-68
2021/05/13 12:46:44;;;;;;;3.45;2.72;;;14.40;88.50;;;;;;3539826;40;20120;-63
2021/05/13 12:49:23;;;;;;;3.40;3.08;;;14.40;88.30;;;;;;3543565;40;20029;-63
2021/05/13 12:52:08;;;;;;;2.85;2.55;;;14.40;88.30;;;;;;3545261;40;20025;-63
2021/05/13 12:54:41;;;;;;;3.75;3.22;;;14.40;87.80;;;;;;3545186;40;20138;-63
2021/05/13 12:57:18;;;;;;;4.03;2.85;;;14.40;87.10;;;;;;3548073;40;20064;-63
2021/05/13 12:59:51;;;;;;;2.88;2.42;;;14.40;87.90;;;;;;3545557;40;20022;-63
2021/05/13 13:02:22;;;;;;;4.15;2.70;;;14.30;87.70;;;;;;3544626;40;20030;-63
2021/05/13 13:04:56;;;;;;;3.03;2.15;;;14.30;88.50;;;;;;3541097;40;20878;-63
2021/05/13 13:07:42;;;;;;;3.15;2.30;;;14.40;88.40;;;;;;3540939;40;20093;-62